createdAt,value
2022-12-26T00:00:25.325Z,10.40
2022-12-26T00:03:13.166Z,10.40
2022-12-26T00:06:02.581Z,10.40
2022-12-26T00:08:50.313Z,10.30
2022-12-26T00:11:38.157Z,10.30
2022-12-26T00:14:25.912Z,10.40
2022-12-26T00:17:13.910Z,10.40
2022-12-26T00:20:03.064Z,7.80
2022-12-26T00:22:51.780Z,10.40
2022-12-26T00:25:42.990Z,10.40
2022-12-26T00:28:30.529Z,10.30
2022-12-26T00:31:18.856Z,10.30
2022-12-26T00:34:06.840Z,10.30
2022-12-26T00:36:54.513Z,10.20
2022-12-26T00:39:43.919Z,10.20
2022-12-26T00:42:31.665Z,10.20
2022-12-26T00:45:19.357Z,10.10
2022-12-26T00:48:08.930Z,10.10
2022-12-26T00:50:56.869Z,10.50
2022-12-26T00:53:44.522Z,10.00
2022-12-26T00:56:33.285Z,9.90
2022-12-26T00:59:20.892Z,9.90
2022-12-26T01:02:28.688Z,9.90
2022-12-26T01:05:16.954Z,9.90
2022-12-26T01:11:12.586Z,9.80
2022-12-26T01:14:01.976Z,9.80
2022-12-26T01:16:50.915Z,9.80
2022-12-26T01:19:40.620Z,9.80
2022-12-26T01:22:28.798Z,9.80
2022-12-26T01:25:17.175Z,9.80
2022-12-26T01:28:05.575Z,9.70
2022-12-26T01:30:54.900Z,9.80
2022-12-26T01:33:42.970Z,9.60
2022-12-26T01:36:30.715Z,9.60
2022-12-26T01:39:18.329Z,9.40
2022-12-26T01:42:10.071Z,9.50
2022-12-26T01:45:02.942Z,9.60
2022-12-26T01:47:55.214Z,9.60
2022-12-26T01:50:44.782Z,9.60
2022-12-26T01:53:33.759Z,9.60
2022-12-26T01:56:23.056Z,9.60
2022-12-26T01:59:12.169Z,9.80
2022-12-26T02:02:01.622Z,9.60
2022-12-26T02:05:08.299Z,9.60
2022-12-26T02:07:55.959Z,9.60
2022-12-26T02:10:47.411Z,9.60
2022-12-26T02:13:36.571Z,9.60
2022-12-26T02:16:25.850Z,9.60
2022-12-26T02:19:21.126Z,9.60
2022-12-26T02:22:31.791Z,9.60
2022-12-26T02:25:35.574Z,9.60
2022-12-26T02:28:38.445Z,9.60
2022-12-26T02:34:16.647Z,9.50
2022-12-26T02:37:12.053Z,9.50
2022-12-26T02:40:07.410Z,9.50
2022-12-26T02:42:59.434Z,9.40
2022-12-26T02:46:09.107Z,9.40
2022-12-26T02:48:58.934Z,9.30
2022-12-26T02:52:10.652Z,9.30
2022-12-26T02:55:19.165Z,9.20
2022-12-26T02:58:25.058Z,9.30
2022-12-26T03:01:33.090Z,9.20
2022-12-26T03:04:39.270Z,9.10
2022-12-26T03:07:49.574Z,9.20
2022-12-26T03:10:54.072Z,9.10
2022-12-26T03:13:42.997Z,9.10
2022-12-26T03:17:04.637Z,9.10
2022-12-26T03:20:02.997Z,9.10
2022-12-26T03:22:54.426Z,9.10
2022-12-26T03:28:48.589Z,9.10
2022-12-26T03:31:35.648Z,9.10
2022-12-26T03:34:23.335Z,9.10
2022-12-26T03:37:48.910Z,9.20
2022-12-26T03:40:59.228Z,9.10
2022-12-26T03:44:13.177Z,9.30
2022-12-26T03:47:24.483Z,9.10
2022-12-26T03:50:33.887Z,9.10
2022-12-26T03:56:49.162Z,9.20
2022-12-26T03:59:59.224Z,9.20
2022-12-26T04:03:06.097Z,9.20
2022-12-26T04:06:12.418Z,9.30
2022-12-26T04:09:19.081Z,10.30
2022-12-26T04:12:30.182Z,9.30
2022-12-26T04:15:39.291Z,9.30
2022-12-26T04:18:47.617Z,9.30
2022-12-26T04:21:55.923Z,9.30
2022-12-26T04:25:03.428Z,9.30
2022-12-26T04:28:10.566Z,9.40
2022-12-26T04:31:19.413Z,9.30
2022-12-26T04:34:27.655Z,9.40
2022-12-26T04:37:36.950Z,9.40
2022-12-26T04:40:45.274Z,9.30
2022-12-26T04:43:52.269Z,9.20
2022-12-26T04:46:41.298Z,9.30
2022-12-26T04:49:46.650Z,9.40
2022-12-26T04:52:47.658Z,9.40
2022-12-26T04:55:36.765Z,9.30
2022-12-26T04:58:24.935Z,9.30
2022-12-26T05:01:31.887Z,9.30
2022-12-26T05:07:43.357Z,9.30
2022-12-26T05:10:31.478Z,9.20
2022-12-26T05:13:19.612Z,9.30
2022-12-26T05:16:24.662Z,9.20
2022-12-26T05:19:32.100Z,9.00
2022-12-26T05:22:37.609Z,9.20
2022-12-26T05:25:43.795Z,9.10
2022-12-26T05:28:43.206Z,9.20
2022-12-26T05:31:35.584Z,9.20
2022-12-26T05:34:25.229Z,9.10
2022-12-26T05:37:13.463Z,9.00
2022-12-26T05:40:01.421Z,9.00
2022-12-26T05:42:51.420Z,9.10
2022-12-26T05:45:39.195Z,9.20
2022-12-26T05:48:27.329Z,9.30
2022-12-26T05:51:16.736Z,9.30
2022-12-26T05:54:04.864Z,9.40
2022-12-26T05:56:52.441Z,9.50
2022-12-26T05:59:40.336Z,9.50
2022-12-26T06:02:30.570Z,9.50
2022-12-26T06:05:19.028Z,9.50
2022-12-26T06:08:08.306Z,9.50
2022-12-26T06:10:57.170Z,9.50
2022-12-26T06:13:45.128Z,9.40
2022-12-26T06:16:32.500Z,9.30
2022-12-26T06:19:20.224Z,9.40
2022-12-26T06:22:08.296Z,9.30
2022-12-26T06:24:57.907Z,9.30
2022-12-26T06:27:45.683Z,9.40
2022-12-26T06:30:33.691Z,9.40
2022-12-26T06:33:21.825Z,9.50
2022-12-26T06:36:10.882Z,9.60
2022-12-26T06:39:01.205Z,9.60
2022-12-26T06:41:53.258Z,9.60
2022-12-26T06:44:41.323Z,9.50
2022-12-26T06:47:30.333Z,9.60
2022-12-26T06:50:18.569Z,9.10
2022-12-26T06:53:06.204Z,9.40
2022-12-26T06:55:53.610Z,9.40
2022-12-26T06:58:43.439Z,9.40
2022-12-26T07:01:33.345Z,9.40
2022-12-26T07:04:21.442Z,9.40
2022-12-26T07:07:09.427Z,9.40
2022-12-26T07:09:58.025Z,9.50
2022-12-26T07:12:46.214Z,9.50
2022-12-26T07:15:35.332Z,9.60
2022-12-26T07:18:24.980Z,9.60
2022-12-26T07:21:14.783Z,9.50
2022-12-26T07:24:02.886Z,9.50
2022-12-26T07:26:50.736Z,9.60
2022-12-26T07:29:38.907Z,9.60
2022-12-26T07:32:28.132Z,9.60
2022-12-26T07:35:16.283Z,9.60
2022-12-26T07:38:06.502Z,9.70
2022-12-26T07:40:56.229Z,9.70
2022-12-26T07:43:43.414Z,9.70
2022-12-26T07:46:31.971Z,9.70
2022-12-26T07:49:21.313Z,9.70
2022-12-26T07:52:09.069Z,9.70
2022-12-26T07:54:57.363Z,9.70
2022-12-26T07:57:49.360Z,9.60
2022-12-26T08:00:37.656Z,9.60
2022-12-26T08:03:25.780Z,9.70
2022-12-26T08:06:15.461Z,9.70
2022-12-26T08:09:03.040Z,9.70
2022-12-26T08:11:50.719Z,9.80
2022-12-26T08:14:38.439Z,9.90
2022-12-26T08:17:26.586Z,9.70
2022-12-26T08:20:14.237Z,9.70
2022-12-26T08:23:03.229Z,9.60
2022-12-26T08:25:51.696Z,9.80
2022-12-26T08:28:39.166Z,9.90
2022-12-26T08:34:13.712Z,10.00
2022-12-26T08:37:01.512Z,10.00
2022-12-26T08:39:52.760Z,10.00
2022-12-26T08:42:56.117Z,10.00
2022-12-26T08:45:48.046Z,10.00
2022-12-26T08:48:36.258Z,9.90
2022-12-26T08:51:24.827Z,9.80
2022-12-26T08:54:12.343Z,9.90
2022-12-26T08:57:02.091Z,10.00
2022-12-26T08:59:49.927Z,10.00
2022-12-26T09:02:37.680Z,10.10
2022-12-26T09:05:24.983Z,10.00
2022-12-26T09:08:12.809Z,10.10
2022-12-26T09:11:03.383Z,10.20
2022-12-26T09:13:52.479Z,10.00
2022-12-26T09:16:49.190Z,10.10
2022-12-26T09:19:37.944Z,10.10
2022-12-26T09:22:42.544Z,10.20
2022-12-26T09:25:30.784Z,10.30
2022-12-26T09:28:18.436Z,10.30
2022-12-26T09:31:09.138Z,10.40
2022-12-26T09:33:57.646Z,10.50
2022-12-26T09:36:45.039Z,10.50
2022-12-26T09:39:32.591Z,10.50
2022-12-26T09:42:25.124Z,10.70
2022-12-26T09:45:14.290Z,10.70
2022-12-26T09:48:05.833Z,10.70
2022-12-26T09:50:53.933Z,10.70
2022-12-26T09:53:44.207Z,10.60
2022-12-26T09:59:43.898Z,10.60
2022-12-26T10:02:32.213Z,10.60
2022-12-26T10:05:22.297Z,10.60
2022-12-26T10:08:15.608Z,10.70
2022-12-26T10:11:05.271Z,10.70
2022-12-26T10:13:59.487Z,10.70
2022-12-26T10:16:51.334Z,10.70
2022-12-26T10:19:45.222Z,10.60
2022-12-26T10:22:40.765Z,10.50
2022-12-26T10:25:34.676Z,10.50
2022-12-26T10:28:27.116Z,10.50
2022-12-26T10:31:17.443Z,10.60
2022-12-26T10:34:09.299Z,10.60
2022-12-26T10:37:00.549Z,10.50
2022-12-26T10:39:53.376Z,10.60
2022-12-26T10:42:41.336Z,10.00
2022-12-26T10:45:34.744Z,10.50
2022-12-26T10:48:22.263Z,10.60
2022-12-26T10:51:09.910Z,10.50
2022-12-26T10:53:57.594Z,10.30
2022-12-26T10:56:46.968Z,10.10
2022-12-26T10:59:39.986Z,9.90
2022-12-26T11:02:28.811Z,9.80
2022-12-26T11:08:28.226Z,9.80
2022-12-26T11:11:22.092Z,9.80
2022-12-26T11:14:23.836Z,9.80
2022-12-26T11:17:13.404Z,9.70
2022-12-26T11:20:13.527Z,9.80
2022-12-26T11:23:15.417Z,9.80
2022-12-26T11:26:03.650Z,9.80
2022-12-26T11:29:05.608Z,9.80
2022-12-26T11:31:57.827Z,9.80
2022-12-26T11:34:47.267Z,10.10
2022-12-26T11:37:38.760Z,9.80
2022-12-26T11:40:29.198Z,9.70
2022-12-26T11:43:19.351Z,9.80
2022-12-26T11:46:07.483Z,9.40
2022-12-26T11:48:56.449Z,9.20
2022-12-26T11:51:46.978Z,9.00
2022-12-26T11:54:36.524Z,8.90
2022-12-26T11:57:28.892Z,8.90
2022-12-26T12:00:18.864Z,8.80
2022-12-26T12:03:12.277Z,8.70
2022-12-26T12:06:03.450Z,8.80
2022-12-26T12:08:58.483Z,8.90
2022-12-26T12:11:54.936Z,9.00
2022-12-26T12:14:54.920Z,8.90
2022-12-26T12:17:49.125Z,8.90
2022-12-26T12:20:40.529Z,8.80
2022-12-26T12:23:41.313Z,8.80
2022-12-26T12:26:32.132Z,8.90
2022-12-26T12:29:31.485Z,8.80
2022-12-26T12:32:19.642Z,8.60
2022-12-26T12:35:19.490Z,8.60
2022-12-26T12:38:26.034Z,8.60
2022-12-26T12:41:21.881Z,8.70
2022-12-26T12:44:14.825Z,8.60
2022-12-26T12:47:06.663Z,8.80
2022-12-26T12:49:59.663Z,8.60
2022-12-26T12:52:49.630Z,8.50
2022-12-26T12:55:45.078Z,9.50
2022-12-26T12:58:37.306Z,8.30
2022-12-26T13:01:26.291Z,8.30
2022-12-26T13:04:17.189Z,7.60
2022-12-26T13:07:07.693Z,8.20
2022-12-26T13:09:58.220Z,8.20
2022-12-26T13:12:48.560Z,8.20
2022-12-26T13:15:38.765Z,8.20
2022-12-26T13:18:28.451Z,8.40
2022-12-26T13:21:19.735Z,8.40
2022-12-26T13:24:25.624Z,8.30
2022-12-26T13:27:17.141Z,8.20
2022-12-26T13:30:08.459Z,8.20
2022-12-26T13:32:58.338Z,8.10
2022-12-26T13:35:54.150Z,8.10
2022-12-26T13:39:01.561Z,8.30
2022-12-26T13:42:08.160Z,8.10
2022-12-26T13:44:56.135Z,8.00
2022-12-26T13:47:43.693Z,8.00
2022-12-26T13:50:55.315Z,7.90
2022-12-26T13:53:57.491Z,7.80
2022-12-26T13:57:01.171Z,7.60
2022-12-26T13:59:54.482Z,7.70
2022-12-26T14:03:21.724Z,4.80
2022-12-26T14:06:19.711Z,7.60
2022-12-26T14:09:13.231Z,7.50
2022-12-26T14:12:15.369Z,7.40
2022-12-26T14:15:08.898Z,7.40
2022-12-26T14:18:02.194Z,7.40
2022-12-26T14:20:51.905Z,7.30
2022-12-26T14:23:45.748Z,7.30
2022-12-26T14:26:39.810Z,7.30
2022-12-26T14:29:32.994Z,7.30
2022-12-26T14:32:27.603Z,7.50
2022-12-26T14:35:25.557Z,7.30
2022-12-26T14:38:23.584Z,6.50
2022-12-26T14:41:33.875Z,7.30
2022-12-26T14:44:34.934Z,7.20
2022-12-26T14:47:36.364Z,7.10
2022-12-26T14:50:41.886Z,5.00
2022-12-26T14:53:32.550Z,7.10
2022-12-26T14:56:34.349Z,7.10
2022-12-26T14:59:29.971Z,7.10
2022-12-26T15:02:31.268Z,7.00
2022-12-26T15:05:22.237Z,6.90
2022-12-26T15:08:24.885Z,6.70
2022-12-26T15:11:28.959Z,6.70
2022-12-26T15:14:37.750Z,6.90
2022-12-26T15:17:35.025Z,6.50
2022-12-26T15:20:37.966Z,6.30
2022-12-26T15:23:41.333Z,6.20
2022-12-26T15:26:41.867Z,6.00
2022-12-26T15:29:46.080Z,5.80
2022-12-26T15:32:37.414Z,5.60
2022-12-26T15:35:29.165Z,5.60
2022-12-26T15:38:27.140Z,5.60
2022-12-26T15:41:15.512Z,2.60
2022-12-26T15:44:21.980Z,5.30
2022-12-26T15:47:16.115Z,5.30
2022-12-26T15:50:11.961Z,5.20
2022-12-26T15:53:09.601Z,5.20
2022-12-26T15:56:12.637Z,5.10
2022-12-26T15:59:09.464Z,4.90
2022-12-26T16:01:58.574Z,4.80
2022-12-26T16:04:49.514Z,4.70
2022-12-26T16:07:40.801Z,4.60
2022-12-26T16:10:29.417Z,4.50
2022-12-26T16:13:22.893Z,1.70
2022-12-26T16:16:10.905Z,4.30
2022-12-26T16:18:58.305Z,4.30
2022-12-26T16:22:04.587Z,4.20
2022-12-26T16:24:55.167Z,4.00
2022-12-26T16:27:43.024Z,3.90
2022-12-26T16:30:34.354Z,3.90
2022-12-26T16:33:22.302Z,4.00
2022-12-26T16:36:10.748Z,3.90
2022-12-26T16:38:58.041Z,3.90
2022-12-26T16:42:00.156Z,3.90
2022-12-26T16:44:47.849Z,3.90
2022-12-26T16:47:35.848Z,3.80
2022-12-26T16:50:26.277Z,3.80
2022-12-26T16:53:18.296Z,3.70
2022-12-26T16:56:17.486Z,3.60
2022-12-26T16:59:10.527Z,3.50
2022-12-26T17:02:02.454Z,3.30
2022-12-26T17:04:58.387Z,3.20
2022-12-26T17:07:47.830Z,3.10
2022-12-26T17:10:39.891Z,3.00
2022-12-26T17:13:28.304Z,2.90
2022-12-26T17:16:17.295Z,2.90
2022-12-26T17:19:12.242Z,3.00
2022-12-26T17:22:18.636Z,3.10
2022-12-26T17:25:24.457Z,3.20
2022-12-26T17:28:25.299Z,3.10
2022-12-26T17:31:14.242Z,3.00
2022-12-26T17:34:09.261Z,3.10
2022-12-26T17:40:06.432Z,3.00
2022-12-26T17:42:55.189Z,3.00
2022-12-26T17:45:47.159Z,2.90
2022-12-26T17:48:34.646Z,2.80
2022-12-26T17:51:24.466Z,2.90
2022-12-26T17:54:12.361Z,2.80
2022-12-26T17:57:00.837Z,2.90
2022-12-26T17:59:49.224Z,2.90
2022-12-26T18:02:36.826Z,3.00
2022-12-26T18:05:24.243Z,3.10
2022-12-26T18:08:19.459Z,3.00
2022-12-26T18:11:07.891Z,0.70
2022-12-26T18:13:57.687Z,2.90
2022-12-26T18:16:45.239Z,2.90
2022-12-26T18:19:33.188Z,3.00
2022-12-26T18:22:21.994Z,2.60
2022-12-26T18:25:13.594Z,3.10
2022-12-26T18:28:03.312Z,3.20
2022-12-26T18:30:51.215Z,4.60
2022-12-26T18:33:38.509Z,3.20
2022-12-26T18:36:33.162Z,3.20
2022-12-26T18:39:21.338Z,3.20
2022-12-26T18:42:12.425Z,3.20
2022-12-26T18:45:04.235Z,3.20
2022-12-26T18:47:52.007Z,3.70
2022-12-26T18:50:39.474Z,3.00
2022-12-26T18:53:26.683Z,2.90
2022-12-26T18:56:14.959Z,2.90
2022-12-26T18:59:04.260Z,3.00
2022-12-26T19:01:51.583Z,3.00
2022-12-26T19:04:42.015Z,3.00
2022-12-26T19:07:29.488Z,2.90
2022-12-26T19:10:17.608Z,2.90
2022-12-26T19:13:06.379Z,2.90
2022-12-26T19:15:55.401Z,2.80
2022-12-26T19:18:48.465Z,2.40
2022-12-26T19:21:35.912Z,2.70
2022-12-26T19:24:23.803Z,2.70
2022-12-26T19:27:11.546Z,2.80
2022-12-26T19:29:59.236Z,2.70
2022-12-26T19:32:48.443Z,2.80
2022-12-26T19:35:35.778Z,2.60
2022-12-26T19:38:23.296Z,0.50
2022-12-26T19:41:12.935Z,2.60
2022-12-26T19:44:02.841Z,2.50
2022-12-26T19:46:50.529Z,2.50
2022-12-26T19:50:00.803Z,2.60
2022-12-26T19:52:51.137Z,2.60
2022-12-26T19:55:38.874Z,2.50
2022-12-26T19:58:30.783Z,2.60
2022-12-26T20:01:19.526Z,2.60
2022-12-26T20:04:08.187Z,2.60
2022-12-26T20:06:59.453Z,2.70
2022-12-26T20:09:46.652Z,2.70
2022-12-26T20:12:34.216Z,2.60
2022-12-26T20:15:21.848Z,2.50
2022-12-26T20:18:14.601Z,2.40
2022-12-26T20:21:03.221Z,2.50
2022-12-26T20:23:58.109Z,2.40
2022-12-26T20:26:45.848Z,2.60
2022-12-26T20:29:34.263Z,2.40
2022-12-26T20:32:22.213Z,2.40
2022-12-26T20:35:09.891Z,2.40
2022-12-26T20:37:57.225Z,2.50
2022-12-26T20:40:50.021Z,2.50
2022-12-26T20:43:37.846Z,2.60
2022-12-26T20:46:26.247Z,2.60
2022-12-26T20:49:15.277Z,2.40
2022-12-26T20:52:03.681Z,2.50
2022-12-26T20:54:51.425Z,2.60
2022-12-26T20:57:40.109Z,2.60
2022-12-26T21:00:27.378Z,2.50
2022-12-26T21:03:15.888Z,2.50
2022-12-26T21:06:06.743Z,3.00
2022-12-26T21:08:54.464Z,2.70
2022-12-26T21:11:43.119Z,2.70
2022-12-26T21:14:33.225Z,2.80
2022-12-26T21:17:23.083Z,2.60
2022-12-26T21:20:11.740Z,2.70
2022-12-26T21:22:59.469Z,2.80
2022-12-26T21:25:47.007Z,2.70
2022-12-26T21:28:35.272Z,2.60
2022-12-26T21:31:25.590Z,2.60
2022-12-26T21:34:14.163Z,2.50
2022-12-26T21:37:18.667Z,2.40
2022-12-26T21:40:06.967Z,2.40
2022-12-26T21:42:54.395Z,2.00
2022-12-26T21:45:42.593Z,2.30
2022-12-26T21:48:31.807Z,2.40
2022-12-26T21:51:21.443Z,2.50
2022-12-26T21:54:26.670Z,2.40
2022-12-26T21:57:14.766Z,2.60
2022-12-26T22:00:04.279Z,2.60
2022-12-26T22:03:09.808Z,2.60
2022-12-26T22:05:59.258Z,2.70
2022-12-26T22:08:47.036Z,2.70
2022-12-26T22:11:52.214Z,2.70
2022-12-26T22:14:39.852Z,3.00
2022-12-26T22:17:27.148Z,3.10
2022-12-26T22:20:15.041Z,3.00
2022-12-26T22:23:04.282Z,3.20
2022-12-26T22:25:55.605Z,3.10
2022-12-26T22:28:43.736Z,3.30
2022-12-26T22:31:32.477Z,3.40
2022-12-26T22:34:19.700Z,3.50
2022-12-26T22:37:07.121Z,3.90
2022-12-26T22:39:56.624Z,3.30
2022-12-26T22:42:44.870Z,3.20
2022-12-26T22:45:32.285Z,3.20
2022-12-26T22:48:20.391Z,3.10
2022-12-26T22:51:09.106Z,3.10
2022-12-26T22:53:59.270Z,3.10
2022-12-26T22:56:48.492Z,3.10
2022-12-26T23:00:07.009Z,3.00
2022-12-26T23:02:44.030Z,3.20
2022-12-26T23:05:32.278Z,3.30
2022-12-26T23:08:21.573Z,3.40
2022-12-26T23:11:09.295Z,3.50
2022-12-26T23:14:02.448Z,3.60
2022-12-26T23:16:52.449Z,3.50
2022-12-26T23:20:01.097Z,3.60
2022-12-26T23:22:51.748Z,3.70
2022-12-26T23:25:40.143Z,3.70
2022-12-26T23:28:56.678Z,3.70
2022-12-26T23:31:46.084Z,3.60
2022-12-26T23:34:34.312Z,3.60
2022-12-26T23:37:21.897Z,3.50
2022-12-26T23:40:10.893Z,3.40
2022-12-26T23:42:58.494Z,3.50
2022-12-26T23:45:48.909Z,3.50
2022-12-26T23:48:38.642Z,3.40
2022-12-26T23:51:25.982Z,3.30
2022-12-26T23:54:14.140Z,3.40
2022-12-26T23:57:03.723Z,3.30
2022-12-26T23:59:51.639Z,3.20
